Time;durP1;ratioP1;P1;durP2;ratioP2;P2;SDS_P1;SDS_P2;PMS_P1;PMS_P2;Temp;Humidity;BMP_temperature;BMP_pressure;BME280_temperature;BME280_humidity;BME280_pressure;Samples;Min_cycle;Max_cycle;Signal;HPM_P1;HPM_P2
2023/11/13 00:00:50;;;;;;;12.55;9.25;;;7.90;90.00;;;;;;5058879;28;20039;-62
2023/11/13 00:03:15;;;;;;;13.50;9.45;;;7.90;90.00;;;;;;5059193;28;20086;-61
2023/11/13 00:05:41;;;;;;;11.45;7.82;;;7.90;90.00;;;;;;5058194;28;20140;-61
2023/11/13 00:08:06;;;;;;;12.38;6.82;;;7.90;90.10;;;;;;5058762;28;20175;-59
2023/11/13 00:10:33;;;;;;;9.85;6.25;;;7.90;90.30;;;;;;5055551;28;20505;-60
2023/11/13 00:12:59;;;;;;;9.55;4.65;;;7.90;90.50;;;;;;5056781;28;20068;-61
2023/11/13 00:15:25;;;;;;;12.63;3.97;;;7.90;90.80;;;;;;5056470;28;20109;-62
2023/11/13 00:17:51;;;;;;;10.18;4.55;;;8.00;91.50;;;;;;5057699;28;20488;-62
2023/11/13 00:20:18;;;;;;;10.75;5.60;;;8.00;91.70;;;;;;5057418;28;20033;-61
2023/11/13 00:22:44;;;;;;;9.27;5.30;;;8.20;91.90;;;;;;5056532;28;23336;-61
2023/11/13 00:25:10;;;;;;;10.10;4.70;;;8.20;91.90;;;;;;5056869;28;20393;-59
2023/11/13 00:27:36;;;;;;;6.70;3.50;;;8.30;91.90;;;;;;5057841;28;20090;-62
2023/11/13 00:30:03;;;;;;;6.03;2.13;;;8.40;92.00;;;;;;5056463;28;20496;-60
2023/11/13 00:32:29;;;;;;;7.47;2.10;;;8.50;92.20;;;;;;5056584;28;20410;-61
2023/11/13 00:34:55;;;;;;;5.38;1.77;;;8.60;92.40;;;;;;5056891;28;20037;-61
2023/11/13 00:37:21;;;;;;;6.50;2.10;;;8.70;92.50;;;;;;5056728;28;20427;-62
2023/11/13 00:39:48;;;;;;;2.50;1.30;;;8.80;92.60;;;;;;5055707;28;20048;-61
2023/11/13 00:42:16;;;;;;;3.10;1.15;;;8.90;92.70;;;;;;5056092;28;20070;-61
2023/11/13 00:44:42;;;;;;;4.60;1.08;;;9.00;92.70;;;;;;5057237;28;20112;-61
2023/11/13 00:47:07;;;;;;;2.72;0.85;;;9.10;92.80;;;;;;5054446;28;20029;-60
2023/11/13 00:49:33;;;;;;;2.85;0.73;;;9.20;92.80;;;;;;5055624;28;20040;-61
2023/11/13 00:51:59;;;;;;;2.72;0.80;;;9.30;92.90;;;;;;5057172;28;20043;-61
2023/11/13 00:54:24;;;;;;;2.13;0.68;;;9.40;92.90;;;;;;5056588;28;20037;-62
2023/11/13 00:56:50;;;;;;;3.42;0.50;;;9.50;92.90;;;;;;5056728;28;20360;-61
2023/11/13 00:59:15;;;;;;;2.92;0.50;;;9.60;93.00;;;;;;5056875;28;20500;-61
2023/11/13 01:01:42;;;;;;;1.00;0.35;;;9.60;92.90;;;;;;5056773;28;20091;-61
2023/11/13 01:04:08;;;;;;;0.70;0.30;;;9.80;93.00;;;;;;5055133;28;20091;-61
2023/11/13 01:06:34;;;;;;;1.27;0.50;;;9.90;92.90;;;;;;5056018;28;20590;-61
2023/11/13 01:08:59;;;;;;;0.77;0.40;;;9.90;92.80;;;;;;5057566;28;20048;-61
2023/11/13 01:11:26;;;;;;;0.73;0.30;;;10.00;92.80;;;;;;5053115;28;20083;-61
2023/11/13 01:13:52;;;;;;;0.35;0.20;;;10.10;92.80;;;;;;5057570;28;20039;-61
2023/11/13 01:16:20;;;;;;;0.85;0.40;;;10.10;92.70;;;;;;5055790;28;20044;-61
2023/11/13 01:18:53;;;;;;;0.60;0.30;;;10.20;92.70;;;;;;5056710;28;20130;-61
2023/11/13 01:21:20;;;;;;;0.70;0.40;;;10.20;92.70;;;;;;5054953;28;20043;-61
2023/11/13 01:23:45;;;;;;;0.40;0.20;;;10.30;92.70;;;;;;5056379;28;20047;-61
2023/11/13 01:26:11;;;;;;;1.15;0.30;;;10.40;92.70;;;;;;5054333;28;20033;-60
2023/11/13 01:28:36;;;;;;;0.73;0.22;;;10.40;92.60;;;;;;5056734;28;20506;-61
2023/11/13 01:31:02;;;;;;;0.50;0.20;;;10.40;92.60;;;;;;5054117;28;20623;-62
2023/11/13 01:33:28;;;;;;;1.08;0.20;;;10.50;92.50;;;;;;5056924;28;20403;-60
2023/11/13 01:35:53;;;;;;;0.88;0.20;;;10.50;92.50;;;;;;5056299;28;20037;-62
2023/11/13 01:38:19;;;;;;;0.73;0.20;;;10.60;92.40;;;;;;5054213;28;20067;-61
2023/11/13 01:40:46;;;;;;;0.45;0.30;;;10.60;92.40;;;;;;5056273;28;20510;-62
2023/11/13 01:43:19;;;;;;;1.08;0.15;;;10.60;92.30;;;;;;5056489;28;20503;-62
2023/11/13 01:45:45;;;;;;;1.08;0.10;;;10.70;92.40;;;;;;5055992;28;20104;-60
2023/11/13 01:48:13;;;;;;;0.20;0.10;;;10.70;92.20;;;;;;5054746;28;20457;-62
2023/11/13 01:50:39;;;;;;;0.28;0.10;;;10.70;92.20;;;;;;5055441;28;20033;-61
2023/11/13 01:53:04;;;;;;;0.30;0.10;;;10.70;92.20;;;;;;5054921;28;20043;-61
2023/11/13 01:55:30;;;;;;;1.00;0.10;;;10.80;92.20;;;;;;5055002;28;20037;-58
2023/11/13 01:57:56;;;;;;;0.20;0.20;;;10.80;92.20;;;;;;5053992;28;20102;-60
2023/11/13 02:00:22;;;;;;;0.20;0.10;;;10.80;92.20;;;;;;5051830;28;20120;-61
2023/11/13 02:02:48;;;;;;;0.35;0.10;;;10.80;92.20;;;;;;5051699;28;20029;-62
2023/11/13 02:05:15;;;;;;;0.45;0.10;;;10.80;92.30;;;;;;5053702;28;20499;-62
2023/11/13 02:07:42;;;;;;;0.85;0.10;;;10.90;92.40;;;;;;5054589;28;20040;-61
2023/11/13 02:10:08;;;;;;;1.02;0.13;;;10.90;92.40;;;;;;5053583;28;20036;-62
2023/11/13 02:12:34;;;;;;;0.43;0.10;;;10.90;92.50;;;;;;5051505;28;20040;-59
2023/11/13 02:15:04;;;;;;;0.45;0.10;;;11.00;92.50;;;;;;5054998;28;20040;-62
2023/11/13 02:17:29;;;;;;;0.68;0.10;;;11.00;92.50;;;;;;5055328;28;20032;-61
2023/11/13 02:19:55;;;;;;;1.95;0.28;;;11.10;92.60;;;;;;5054931;28;20040;-61
2023/11/13 02:22:20;;;;;;;2.00;0.20;;;11.10;92.60;;;;;;5054982;28;20033;-61
2023/11/13 02:24:47;;;;;;;0.63;0.30;;;11.10;92.60;;;;;;5054528;28;20036;-62
2023/11/13 02:27:13;;;;;;;1.75;0.40;;;11.10;92.60;;;;;;5054043;28;20033;-61
2023/11/13 02:29:40;;;;;;;0.77;0.30;;;11.20;92.60;;;;;;5053112;28;20568;-62
2023/11/13 02:32:06;;;;;;;2.08;0.50;;;11.20;92.60;;;;;;5054713;28;20039;-62
2023/11/13 02:34:31;;;;;;;4.30;0.47;;;11.30;92.60;;;;;;5054421;28;20032;-61
2023/11/13 02:36:57;;;;;;;2.30;0.50;;;11.30;92.50;;;;;;5053249;28;20116;-60
2023/11/13 02:39:23;;;;;;;2.10;0.50;;;11.40;92.50;;;;;;5054371;28;20041;-61
2023/11/13 02:41:48;;;;;;;1.92;0.43;;;11.40;92.50;;;;;;5054822;28;20033;-61
2023/11/13 02:44:15;;;;;;;2.63;0.52;;;11.40;92.50;;;;;;5054527;28;20048;-60
2023/11/13 02:46:41;;;;;;;4.00;0.70;;;11.40;92.40;;;;;;5053379;28;20040;-62
2023/11/13 02:49:06;;;;;;;2.80;0.50;;;11.50;92.40;;;;;;5051546;28;20040;-61
2023/11/13 02:51:32;;;;;;;1.77;0.43;;;11.50;92.30;;;;;;5052778;28;20520;-60
2023/11/13 02:53:58;;;;;;;1.73;0.55;;;11.50;92.30;;;;;;5055732;28;20252;-61
2023/11/13 02:56:24;;;;;;;1.40;0.40;;;11.60;92.30;;;;;;5052579;28;20048;-61
2023/11/13 02:58:49;;;;;;;1.00;0.40;;;11.60;92.30;;;;;;5054421;28;20045;-60
2023/11/13 03:01:15;;;;;;;0.65;0.20;;;11.60;92.30;;;;;;5054602;28;20086;-61
2023/11/13 03:03:45;;;;;;;1.30;0.22;;;11.60;92.30;;;;;;5051716;28;20539;-62
2023/11/13 03:06:11;;;;;;;2.90;0.65;;;11.60;92.20;;;;;;5053199;28;20032;-62
2023/11/13 03:08:37;;;;;;;2.75;0.52;;;11.70;92.20;;;;;;5053600;28;20040;-62
2023/11/13 03:11:03;;;;;;;3.90;0.57;;;11.70;92.10;;;;;;5050422;28;20029;-61
2023/11/13 03:13:29;;;;;;;2.88;0.60;;;11.70;92.10;;;;;;5056013;28;20033;-61
2023/11/13 03:15:54;;;;;;;2.53;0.50;;;11.70;92.10;;;;;;5052947;28;20080;-62
2023/11/13 03:18:20;;;;;;;2.60;0.80;;;11.80;92.10;;;;;;5055011;28;20265;-61
2023/11/13 03:20:46;;;;;;;5.20;1.33;;;11.80;92.10;;;;;;5052085;28;20381;-61
2023/11/13 03:23:12;;;;;;;3.92;0.70;;;11.80;92.00;;;;;;5055332;28;20021;-60
2023/11/13 03:25:38;;;;;;;1.75;0.60;;;11.80;92.00;;;;;;5052679;28;20037;-62
2023/11/13 03:28:03;;;;;;;3.50;0.70;;;11.80;91.90;;;;;;5054912;28;20044;-62
2023/11/13 03:30:32;;;;;;;4.00;0.80;;;11.80;91.90;;;;;;5053500;28;20507;-61
2023/11/13 03:32:58;;;;;;;7.00;0.90;;;11.80;91.80;;;;;;5054915;28;20039;-61
2023/11/13 03:35:23;;;;;;;5.63;1.17;;;11.80;91.80;;;;;;5053250;28;20036;-61
2023/11/13 03:37:49;;;;;;;5.72;1.13;;;11.90;91.90;;;;;;5052795;28;20514;-60
2023/11/13 03:40:14;;;;;;;3.28;0.80;;;11.90;91.80;;;;;;5052609;28;20037;-61
2023/11/13 03:42:40;;;;;;;3.38;1.00;;;11.90;91.80;;;;;;5053437;28;20032;-61
2023/11/13 03:45:07;;;;;;;6.45;1.33;;;11.90;91.70;;;;;;5053505;28;20120;-62
2023/11/13 03:47:33;;;;;;;3.50;0.90;;;11.90;91.70;;;;;;5051295;28;20037;-61
2023/11/13 03:49:58;;;;;;;7.85;1.20;;;11.90;91.70;;;;;;5053407;28;20055;-62
2023/11/13 03:52:24;;;;;;;5.38;0.95;;;11.90;91.70;;;;;;5051685;28;20037;-62
2023/11/13 03:54:50;;;;;;;3.63;1.00;;;11.90;91.60;;;;;;5051212;28;20079;-62
2023/11/13 03:57:15;;;;;;;6.65;0.95;;;12.00;91.60;;;;;;5054899;28;20544;-61
2023/11/13 03:59:41;;;;;;;3.72;1.02;;;12.00;91.50;;;;;;5054169;28;20040;-61
2023/11/13 04:02:07;;;;;;;7.05;1.13;;;12.00;91.50;;;;;;5054940;28;20450;-61
2023/11/13 04:04:32;;;;;;;5.47;1.17;;;12.00;91.50;;;;;;5054612;28;20063;-62
2023/11/13 04:06:58;;;;;;;5.90;1.20;;;12.00;91.50;;;;;;5055138;28;20032;-62
2023/11/13 04:09:24;;;;;;;4.43;1.20;;;12.00;91.50;;;;;;5054886;28;20472;-62
2023/11/13 04:11:50;;;;;;;5.22;1.10;;;12.00;91.40;;;;;;5054131;28;20112;-62
2023/11/13 04:14:16;;;;;;;6.40;1.15;;;12.00;91.40;;;;;;5055037;28;20032;-63
2023/11/13 04:16:42;;;;;;;5.30;1.17;;;12.10;91.40;;;;;;5055384;28;20044;-62
2023/11/13 04:19:08;;;;;;;8.00;1.70;;;12.10;91.30;;;;;;5057958;28;20037;-62
2023/11/13 04:21:34;;;;;;;6.60;1.02;;;12.10;91.30;;;;;;5059236;28;20170;-61
2023/11/13 04:24:00;;;;;;;5.90;1.23;;;12.10;91.30;;;;;;5058592;28;20457;-62
2023/11/13 04:26:26;;;;;;;7.95;1.33;;;12.10;91.30;;;;;;5058085;28;20404;-62
2023/11/13 04:28:53;;;;;;;7.35;1.30;;;12.10;91.30;;;;;;5059050;28;20523;-62
2023/11/13 04:31:19;;;;;;;11.15;1.40;;;12.10;91.20;;;;;;5058137;28;20041;-62
2023/11/13 04:33:45;;;;;;;6.25;1.10;;;12.10;91.20;;;;;;5058645;28;20040;-60
2023/11/13 04:36:10;;;;;;;6.85;1.50;;;12.10;91.20;;;;;;5058816;28;20025;-62
2023/11/13 04:38:37;;;;;;;7.70;1.30;;;12.10;91.20;;;;;;5057795;28;20036;-61
2023/11/13 04:41:04;;;;;;;7.80;1.83;;;12.10;91.20;;;;;;5058557;28;20064;-62
2023/11/13 04:43:30;;;;;;;6.22;1.10;;;12.20;91.10;;;;;;5058765;28;20115;-62
2023/11/13 04:45:55;;;;;;;6.78;1.52;;;12.20;91.10;;;;;;5057898;28;20452;-62
2023/11/13 04:48:21;;;;;;;9.55;1.50;;;12.20;91.10;;;;;;5056777;28;20044;-63
2023/11/13 04:50:47;;;;;;;8.38;1.65;;;12.20;91.00;;;;;;5057708;28;20341;-61
2023/11/13 04:53:13;;;;;;;5.85;1.10;;;12.20;91.00;;;;;;5057929;28;20089;-62
2023/11/13 04:55:41;;;;;;;6.78;1.40;;;12.20;91.00;;;;;;5058371;28;20040;-62
2023/11/13 04:58:07;;;;;;;5.68;1.20;;;12.20;91.00;;;;;;5057147;28;20047;-62
2023/11/13 05:00:33;;;;;;;6.43;1.30;;;12.20;90.90;;;;;;5056902;28;20407;-61
2023/11/13 05:02:58;;;;;;;8.05;1.48;;;12.20;90.80;;;;;;5053983;28;20179;-63
2023/11/13 05:05:25;;;;;;;6.40;0.98;;;12.20;90.80;;;;;;5054502;28;20488;-63
2023/11/13 05:07:51;;;;;;;9.23;1.63;;;12.30;90.80;;;;;;5055804;28;20048;-63
2023/11/13 05:10:17;;;;;;;7.03;1.55;;;12.30;90.80;;;;;;5054050;28;20463;-62
2023/11/13 05:12:43;;;;;;;6.47;1.27;;;12.30;90.80;;;;;;5052970;28;20309;-62
2023/11/13 05:15:09;;;;;;;4.65;1.17;;;12.30;90.70;;;;;;5056306;28;20055;-63
2023/11/13 05:17:38;;;;;;;6.35;1.38;;;12.30;90.70;;;;;;5056450;28;20428;-63
2023/11/13 05:20:06;;;;;;;5.13;1.30;;;12.30;90.70;;;;;;5055571;28;20699;-62
2023/11/13 05:22:32;;;;;;;5.15;1.00;;;12.30;90.70;;;;;;5056675;28;20040;-62
2023/11/13 05:24:58;;;;;;;4.80;1.20;;;12.30;91.00;;;;;;5057080;28;20090;-62
2023/11/13 05:27:24;;;;;;;7.47;1.23;;;12.30;90.60;;;;;;5057573;28;20029;-62
2023/11/13 05:29:49;;;;;;;7.40;1.42;;;12.30;90.50;;;;;;5056971;28;20061;-63
2023/11/13 05:32:15;;;;;;;5.68;1.08;;;12.30;90.50;;;;;;5057937;28;20039;-63
2023/11/13 05:34:40;;;;;;;3.50;0.90;;;12.30;90.50;;;;;;5057236;28;20037;-62
2023/11/13 05:37:06;;;;;;;8.20;2.00;;;12.30;90.50;;;;;;5057034;28;20025;-63
2023/11/13 05:39:32;;;;;;;6.30;1.42;;;12.30;90.50;;;;;;5058121;28;20067;-63
2023/11/13 05:41:57;;;;;;;5.32;1.17;;;12.30;90.50;;;;;;5057477;28;20412;-62
2023/11/13 05:44:23;;;;;;;5.53;1.27;;;12.30;90.40;;;;;;5057945;28;20032;-62
2023/11/13 05:46:48;;;;;;;3.50;1.10;;;12.30;90.40;;;;;;5055116;28;20040;-62
2023/11/13 05:49:14;;;;;;;7.88;1.40;;;12.30;90.40;;;;;;5055622;28;20393;-62
2023/11/13 05:51:40;;;;;;;5.25;1.52;;;12.30;90.40;;;;;;5056316;28;20543;-63
2023/11/13 05:54:06;;;;;;;5.20;1.00;;;12.30;90.40;;;;;;5056716;28;20314;-62
2023/11/13 05:56:32;;;;;;;6.55;1.75;;;12.30;90.40;;;;;;5056162;28;20079;-62
2023/11/13 05:58:57;;;;;;;5.40;1.40;;;12.30;90.40;;;;;;5056806;28;20059;-61
2023/11/13 06:01:23;;;;;;;3.10;1.02;;;12.30;90.40;;;;;;5057128;28;20079;-63
2023/11/13 06:03:49;;;;;;;3.97;1.13;;;12.30;90.30;;;;;;5056869;28;20124;-63
2023/11/13 06:06:16;;;;;;;4.32;1.00;;;12.30;90.30;;;;;;5056172;28;20056;-63
2023/11/13 06:08:42;;;;;;;5.70;1.00;;;12.30;90.30;;;;;;5055481;28;20041;-63
2023/11/13 06:11:11;;;;;;;4.65;1.13;;;12.30;90.20;;;;;;5054525;28;20136;-62
2023/11/13 06:13:37;;;;;;;4.32;1.00;;;12.30;90.20;;;;;;5056362;28;20082;-63
2023/11/13 06:16:03;;;;;;;4.43;1.02;;;12.30;90.20;;;;;;5056402;28;20457;-62
2023/11/13 06:18:29;;;;;;;4.70;1.00;;;12.30;90.20;;;;;;5055820;28;20044;-63
2023/11/13 06:20:55;;;;;;;4.88;1.00;;;12.30;90.20;;;;;;5056875;28;20041;-63
2023/11/13 06:23:23;;;;;;;5.53;1.20;;;12.30;90.10;;;;;;5056515;28;20505;-63
2023/11/13 06:25:49;;;;;;;5.45;0.95;;;12.30;90.00;;;;;;5055372;28;20037;-62
2023/11/13 06:28:15;;;;;;;3.20;0.98;;;12.30;90.00;;;;;;5056301;28;20036;-63
2023/11/13 06:30:42;;;;;;;4.47;1.20;;;12.30;90.00;;;;;;5056075;28;20036;-62
2023/11/13 06:33:11;;;;;;;2.15;0.98;;;12.30;90.00;;;;;;5055697;28;20040;-63
2023/11/13 06:35:37;;;;;;;5.75;0.98;;;12.30;90.00;;;;;;5056333;28;20507;-62
2023/11/13 06:38:02;;;;;;;3.45;0.90;;;12.30;89.80;;;;;;5056087;28;20037;-62
2023/11/13 06:40:28;;;;;;;6.65;1.13;;;12.30;89.70;;;;;;5055623;28;20528;-62
2023/11/13 06:42:53;;;;;;;3.38;0.95;;;12.30;89.70;;;;;;5056002;28;20033;-63
2023/11/13 06:45:19;;;;;;;4.07;0.90;;;12.30;89.60;;;;;;5056710;28;20043;-62
2023/11/13 06:47:50;;;;;;;3.67;0.80;;;12.30;89.50;;;;;;5054793;28;20049;-63
2023/11/13 06:50:16;;;;;;;3.97;1.08;;;12.30;89.40;;;;;;5055830;28;20519;-63
2023/11/13 06:52:41;;;;;;;3.40;1.00;;;12.30;89.50;;;;;;5056364;28;20461;-63
2023/11/13 06:55:13;;;;;;;4.28;1.00;;;12.30;89.40;;;;;;5056038;28;20174;-63
2023/11/13 06:57:40;;;;;;;3.95;1.08;;;12.30;89.50;;;;;;5056315;28;20127;-63
2023/11/13 07:00:08;;;;;;;3.28;0.70;;;12.20;89.40;;;;;;5055320;28;20127;-63
2023/11/13 07:02:39;;;;;;;2.33;0.77;;;12.20;89.40;;;;;;5055408;28;20021;-63
2023/11/13 07:05:06;;;;;;;4.25;1.08;;;12.20;89.40;;;;;;5055300;28;20029;-63
2023/11/13 07:07:32;;;;;;;3.53;0.82;;;12.20;89.50;;;;;;5055875;28;20036;-63
2023/11/13 07:10:01;;;;;;;3.53;1.00;;;12.20;89.60;;;;;;5055984;28;20473;-63
2023/11/13 07:12:29;;;;;;;3.42;0.57;;;12.10;89.60;;;;;;5053431;28;20086;-63
2023/11/13 07:14:55;;;;;;;3.95;0.70;;;12.10;89.70;;;;;;5055578;28;20028;-63
2023/11/13 07:17:21;;;;;;;3.58;0.77;;;12.20;89.90;;;;;;5054148;28;20114;-63
2023/11/13 07:19:47;;;;;;;2.58;0.52;;;12.20;90.00;;;;;;5054985;28;20097;-63
2023/11/13 07:22:13;;;;;;;3.17;0.88;;;12.20;90.00;;;;;;5055191;28;20118;-63
2023/11/13 07:24:39;;;;;;;1.73;0.50;;;12.20;90.10;;;;;;5055355;28;20040;-62
2023/11/13 07:27:05;;;;;;;1.83;0.50;;;12.10;90.20;;;;;;5054712;28;20291;-63
2023/11/13 07:29:31;;;;;;;2.28;0.50;;;12.10;90.30;;;;;;5056296;28;20421;-63
2023/11/13 07:31:57;;;;;;;2.83;0.60;;;12.10;90.30;;;;;;5056010;28;20025;-63
2023/11/13 07:34:23;;;;;;;1.23;0.47;;;12.10;90.40;;;;;;5055314;28;20094;-64
2023/11/13 07:36:48;;;;;;;2.08;0.47;;;12.20;90.40;;;;;;5055688;28;20508;-63
2023/11/13 07:39:15;;;;;;;1.52;0.50;;;12.10;90.50;;;;;;5054515;28;20322;-64
2023/11/13 07:41:41;;;;;;;1.67;0.80;;;12.10;90.50;;;;;;5055792;28;20044;-63
2023/11/13 07:44:06;;;;;;;4.28;0.80;;;12.10;90.50;;;;;;5055408;28;20044;-63
2023/11/13 07:46:33;;;;;;;1.55;0.60;;;12.10;90.60;;;;;;5055190;28;20029;-63
2023/11/13 07:48:59;;;;;;;1.38;0.40;;;12.10;90.70;;;;;;5053044;28;20032;-64
2023/11/13 07:51:30;;;;;;;1.33;0.50;;;12.10;90.70;;;;;;5057423;28;20106;-64
2023/11/13 07:53:56;;;;;;;0.77;0.30;;;12.20;90.80;;;;;;5059638;28;20065;-64
2023/11/13 07:56:22;;;;;;;0.73;0.30;;;12.10;90.80;;;;;;5059312;28;20047;-62
2023/11/13 07:58:48;;;;;;;0.98;0.40;;;12.10;90.80;;;;;;5059891;28;20044;-63
2023/11/13 08:01:14;;;;;;;0.80;0.20;;;12.20;90.90;;;;;;5059981;28;20033;-63
2023/11/13 08:03:39;;;;;;;0.65;0.40;;;12.10;90.90;;;;;;5059756;28;20094;-63
2023/11/13 08:06:06;;;;;;;0.52;0.10;;;12.10;91.00;;;;;;5059260;28;20089;-63
2023/11/13 08:08:33;;;;;;;0.75;0.22;;;12.20;91.10;;;;;;5058015;28;20036;-63
2023/11/13 08:10:59;;;;;;;0.13;0.10;;;12.10;91.00;;;;;;5057516;28;20036;-63
2023/11/13 08:13:24;;;;;;;0.52;0.10;;;12.20;91.10;;;;;;5058423;28;20040;-63
2023/11/13 08:15:53;;;;;;;0.70;0.10;;;12.20;91.20;;;;;;5057972;28;20030;-63
2023/11/13 08:18:19;;;;;;;0.77;0.10;;;12.10;91.20;;;;;;5057590;28;20053;-62
2023/11/13 08:20:48;;;;;;;0.38;0.03;;;12.20;91.20;;;;;;5057874;28;20032;-63
2023/11/13 08:23:15;;;;;;;0.85;0.30;;;12.20;91.30;;;;;;5058694;28;20025;-63
2023/11/13 08:25:46;;;;;;;0.10;0.10;;;12.20;91.30;;;;;;5058702;28;20039;-63
2023/11/13 08:28:12;;;;;;;0.10;0.10;;;12.20;91.30;;;;;;5058481;28;20043;-63
2023/11/13 08:30:41;;;;;;;0.40;0.20;;;12.20;91.40;;;;;;5058696;28;20120;-63
2023/11/13 08:33:08;;;;;;;0.20;0.10;;;12.20;91.40;;;;;;5058266;28;20047;-61
2023/11/13 08:35:34;;;;;;;0.30;0.10;;;12.20;91.50;;;;;;5058491;28;20463;-60
2023/11/13 08:37:59;;;;;;;0.55;0.13;;;12.20;91.50;;;;;;5058406;28;20032;-62
2023/11/13 08:40:26;;;;;;;0.17;0.10;;;12.20;91.50;;;;;;5058609;28;20037;-63
2023/11/13 08:42:53;;;;;;;0.43;0.20;;;12.20;91.50;;;;;;5057851;28;20551;-63
2023/11/13 08:45:19;;;;;;;0.10;0.10;;;12.20;91.60;;;;;;5058003;28;20029;-63
2023/11/13 08:47:49;;;;;;;0.50;0.30;;;12.20;91.60;;;;;;5057160;28;20041;-62
2023/11/13 08:50:15;;;;;;;0.55;0.20;;;12.30;91.70;;;;;;5057824;28;20488;-62
2023/11/13 08:52:43;;;;;;;0.52;0.20;;;12.30;91.70;;;;;;5058028;28;20041;-62
2023/11/13 08:55:12;;;;;;;0.50;0.40;;;12.30;91.70;;;;;;5057770;28;20031;-62
2023/11/13 08:57:41;;;;;;;0.40;0.22;;;12.30;91.70;;;;;;5058020;28;20044;-63
2023/11/13 09:00:19;;;;;;;0.93;0.22;;;12.30;91.70;;;;;;5057136;28;20037;-63
2023/11/13 09:02:56;;;;;;;0.88;0.38;;;12.40;91.70;;;;;;5054046;28;20158;-62
2023/11/13 09:05:26;;;;;;;6.97;0.50;;;12.40;91.90;;;;;;5057245;28;20048;-63
2023/11/13 09:07:52;;;;;;;1.13;0.40;;;12.40;91.70;;;;;;5057955;28;20033;-62
2023/11/13 09:10:21;;;;;;;0.60;0.38;;;12.50;91.80;;;;;;5057190;28;20040;-62
2023/11/13 09:12:47;;;;;;;0.93;0.40;;;12.50;91.80;;;;;;5057431;28;20046;-62
2023/11/13 09:15:16;;;;;;;1.98;0.47;;;12.50;91.80;;;;;;5057803;28;20037;-63
2023/11/13 09:17:48;;;;;;;5.47;0.50;;;12.60;91.80;;;;;;5057907;28;20069;-62
2023/11/13 09:20:16;;;;;;;1.67;0.50;;;12.60;91.80;;;;;;5057581;28;20032;-62
2023/11/13 09:22:43;;;;;;;1.98;0.60;;;12.70;91.70;;;;;;5058379;28;20106;-63
2023/11/13 09:25:13;;;;;;;1.38;0.75;;;12.70;91.70;;;;;;5057985;28;20447;-63
2023/11/13 09:27:40;;;;;;;1.90;0.70;;;12.70;91.70;;;;;;5058248;28;20524;-63
2023/11/13 09:30:10;;;;;;;1.55;0.50;;;12.80;91.70;;;;;;5056441;28;20036;-63
2023/11/13 09:32:36;;;;;;;0.88;0.50;;;12.80;91.70;;;;;;5057340;28;20416;-62
2023/11/13 09:35:03;;;;;;;1.33;0.40;;;12.90;91.70;;;;;;5058391;28;20033;-63
2023/11/13 09:37:28;;;;;;;1.38;0.30;;;12.90;91.70;;;;;;5057690;28;20107;-61
2023/11/13 09:39:54;;;;;;;0.73;0.30;;;13.00;91.60;;;;;;5058101;28;20131;-62
2023/11/13 09:42:20;;;;;;;1.48;0.40;;;13.00;91.60;;;;;;5058103;28;20036;-61
2023/11/13 09:44:48;;;;;;;1.75;0.40;;;13.00;91.50;;;;;;5057322;28;20381;-63
2023/11/13 09:47:18;;;;;;;1.00;0.63;;;13.10;91.50;;;;;;5057101;28;20028;-62
2023/11/13 09:49:49;;;;;;;0.75;0.40;;;13.10;91.40;;;;;;5056739;28;20033;-63
2023/11/13 09:52:16;;;;;;;0.30;0.30;;;13.20;91.30;;;;;;5057968;28;20036;-63
2023/11/13 09:54:43;;;;;;;1.50;0.30;;;13.20;91.30;;;;;;5057237;28;20522;-63
2023/11/13 09:57:13;;;;;;;1.80;0.50;;;13.20;91.20;;;;;;5057074;28;20047;-63
2023/11/13 09:59:40;;;;;;;0.88;0.40;;;13.30;91.20;;;;;;5058480;28;20045;-63
2023/11/13 10:02:08;;;;;;;1.15;0.50;;;13.30;91.20;;;;;;5057193;28;20110;-63
2023/11/13 10:04:34;;;;;;;1.40;0.30;;;13.40;91.20;;;;;;5057793;28;20064;-63
2023/11/13 10:07:02;;;;;;;2.78;0.30;;;13.40;91.10;;;;;;5056742;28;20060;-63
2023/11/13 10:09:29;;;;;;;0.95;0.40;;;13.40;91.10;;;;;;5057139;28;20508;-63
2023/11/13 10:11:55;;;;;;;0.88;0.30;;;13.40;91.00;;;;;;5055199;28;20036;-63
2023/11/13 10:14:22;;;;;;;0.57;0.30;;;13.50;90.90;;;;;;5056343;28;20127;-62
2023/11/13 10:16:56;;;;;;;1.48;0.40;;;13.50;90.90;;;;;;5057020;28;20069;-62
2023/11/13 10:19:23;;;;;;;2.03;0.50;;;13.60;90.80;;;;;;5057727;28;20388;-62
2023/11/13 10:21:49;;;;;;;1.33;0.38;;;13.60;90.80;;;;;;5057553;28;20039;-63
2023/11/13 10:24:21;;;;;;;1.50;0.40;;;13.60;90.70;;;;;;5056007;28;20136;-62
2023/11/13 10:26:55;;;;;;;1.05;0.40;;;13.60;90.70;;;;;;5056126;28;20037;-63
2023/11/13 10:29:30;;;;;;;0.75;0.40;;;13.60;91.00;;;;;;5056715;28;20074;-62
2023/11/13 10:31:55;;;;;;;;;;;13.70;90.50;;;;;;5057434;28;20608;-62
2023/11/13 10:34:21;;;;;;;1.35;0.30;;;13.70;90.40;;;;;;5057090;28;20718;-63
2023/11/13 10:37:11;;;;;;;1.75;0.63;;;13.70;90.40;;;;;;5055345;28;20492;-63
2023/11/13 10:39:42;;;;;;;2.22;0.70;;;13.80;90.20;;;;;;5056691;28;20048;-63
2023/11/13 10:42:22;;;;;;;2.28;0.60;;;13.80;90.30;;;;;;5056515;28;20031;-63
2023/11/13 10:44:56;;;;;;;1.13;0.50;;;13.80;90.20;;;;;;5055432;28;20492;-62
2023/11/13 10:47:26;;;;;;;1.80;0.50;;;13.80;90.20;;;;;;5056591;28;20056;-60
2023/11/13 10:49:56;;;;;;;5.13;0.55;;;13.80;90.20;;;;;;5054247;28;20376;-62
2023/11/13 10:52:23;;;;;;;1.52;0.50;;;13.90;90.10;;;;;;5057382;28;20041;-62
2023/11/13 10:54:51;;;;;;;1.90;0.60;;;13.90;90.10;;;;;;5056455;28;20041;-63
2023/11/13 10:57:20;;;;;;;4.72;0.60;;;13.90;90.10;;;;;;5056052;28;20044;-62
2023/11/13 10:59:49;;;;;;;2.72;0.90;;;13.90;90.00;;;;;;5056650;28;20044;-63
2023/11/13 11:02:30;;;;;;;1.05;0.40;;;13.90;90.00;;;;;;5057019;28;20032;-62
2023/11/13 11:04:59;;;;;;;1.15;0.60;;;13.90;90.00;;;;;;5056327;28;20059;-63
2023/11/13 11:07:27;;;;;;;2.75;0.80;;;14.00;90.00;;;;;;5056812;28;20086;-62
2023/11/13 11:09:57;;;;;;;3.38;0.80;;;13.90;90.00;;;;;;5056841;28;20041;-63
2023/11/13 11:12:33;;;;;;;3.47;0.90;;;13.90;90.00;;;;;;5053638;28;20516;-63
2023/11/13 11:15:22;;;;;;;2.28;0.80;;;14.00;90.00;;;;;;5056050;28;20060;-63
2023/11/13 11:18:21;;;;;;;0.93;0.60;;;14.00;90.00;;;;;;5047543;28;20043;-63
2023/11/13 11:21:00;;;;;;;2.70;0.88;;;14.00;90.00;;;;;;5055547;28;20036;-63
2023/11/13 11:23:29;;;;;;;2.15;0.68;;;14.00;90.00;;;;;;5054843;28;20047;-63
2023/11/13 11:25:56;;;;;;;1.83;0.75;;;14.00;90.00;;;;;;5057493;28;20056;-63
2023/11/13 11:28:48;;;;;;;3.15;0.80;;;14.00;90.00;;;;;;5059956;28;20047;-63
2023/11/13 11:31:38;;;;;;;2.33;0.70;;;14.00;90.20;;;;;;5060111;28;20071;-63
2023/11/13 11:34:04;;;;;;;3.08;0.63;;;14.00;90.00;;;;;;5060117;28;20036;-63
2023/11/13 11:36:34;;;;;;;1.88;0.70;;;14.10;90.10;;;;;;5059879;28;20523;-64
2023/11/13 11:39:26;;;;;;;2.28;0.85;;;14.00;90.10;;;;;;5060497;28;20056;-63
2023/11/13 11:41:54;;;;;;;2.92;0.75;;;14.00;90.20;;;;;;5060495;28;20566;-63
2023/11/13 11:44:44;;;;;;;2.97;0.90;;;14.00;90.20;;;;;;5059559;28;20428;-63
2023/11/13 11:47:23;;;;;;;1.85;0.77;;;14.00;90.20;;;;;;5059791;28;20069;-64
2023/11/13 11:49:50;;;;;;;2.20;0.60;;;14.00;90.30;;;;;;5059124;28;20048;-62
2023/11/13 11:52:17;;;;;;;2.45;0.82;;;14.00;90.30;;;;;;5060368;28;20037;-63
2023/11/13 11:54:43;;;;;;;2.00;0.77;;;14.00;90.40;;;;;;5059082;28;20033;-63
2023/11/13 11:57:14;;;;;;;2.45;0.82;;;14.00;90.40;;;;;;5059855;28;20469;-63
2023/11/13 11:59:39;;;;;;;2.40;0.60;;;14.00;90.80;;;;;;5060143;28;20048;-63
2023/11/13 12:02:06;;;;;;;1.60;0.70;;;14.00;90.50;;;;;;5058441;28;20033;-63
2023/11/13 12:04:32;;;;;;;2.63;0.80;;;14.00;90.50;;;;;;5058912;28;20099;-63
2023/11/13 12:07:08;;;;;;;3.53;0.93;;;14.00;90.50;;;;;;5059078;28;20032;-62
2023/11/13 12:09:35;;;;;;;3.03;0.70;;;14.00;90.50;;;;;;5059645;28;20078;-63
2023/11/13 12:12:01;;;;;;;1.42;0.73;;;14.00;90.50;;;;;;5058501;28;20033;-62
2023/11/13 12:14:27;;;;;;;2.35;0.80;;;14.00;90.60;;;;;;5059421;28;20488;-63
2023/11/13 12:16:52;;;;;;;2.47;1.63;;;14.00;90.60;;;;;;5059442;28;20653;-63
2023/11/13 12:19:19;;;;;;;2.80;0.88;;;14.00;90.50;;;;;;5059729;28;20123;-63
2023/11/13 12:21:45;;;;;;;1.92;0.82;;;14.00;90.50;;;;;;5060231;28;20512;-63
2023/11/13 12:24:12;;;;;;;2.38;1.33;;;14.10;90.60;;;;;;5058280;28;20419;-63
2023/11/13 12:26:41;;;;;;;3.35;1.00;;;14.10;90.50;;;;;;5058338;28;20116;-63
2023/11/13 12:29:18;;;;;;;2.17;0.98;;;14.10;90.50;;;;;;5059028;28;20029;-63
2023/11/13 12:31:45;;;;;;;2.30;1.05;;;14.10;90.50;;;;;;5059229;28;20041;-63
2023/11/13 12:34:14;;;;;;;1.40;0.80;;;14.20;90.50;;;;;;5059185;28;20109;-63
2023/11/13 12:36:42;;;;;;;2.83;1.00;;;14.10;90.40;;;;;;5056817;28;20078;-63
2023/11/13 12:39:14;;;;;;;5.72;1.08;;;14.20;90.40;;;;;;5057979;28;20065;-63
2023/11/13 12:41:40;;;;;;;1.65;0.63;;;14.20;90.40;;;;;;5059117;28;20133;-63
2023/11/13 12:44:07;;;;;;;2.05;0.80;;;14.20;90.40;;;;;;5058395;28;20124;-63
2023/11/13 12:46:33;;;;;;;3.53;0.90;;;14.20;90.30;;;;;;5058083;28;20033;-63
2023/11/13 12:48:59;;;;;;;2.10;0.73;;;14.20;90.30;;;;;;5057655;28;20083;-63